createdAt,value
2018-06-28T00:02:09.636Z,2.57
2018-06-28T00:04:37.968Z,2.10
2018-06-28T00:07:06.344Z,1.83
2018-06-28T00:09:34.407Z,2.20
2018-06-28T00:12:02.775Z,2.27
2018-06-28T00:14:31.140Z,3.10
2018-06-28T00:16:59.505Z,2.13
2018-06-28T00:19:27.836Z,2.47
2018-06-28T00:21:56.214Z,2.33
2018-06-28T00:24:24.555Z,2.23
2018-06-28T00:26:52.910Z,2.13
2018-06-28T00:29:21.295Z,2.33
2018-06-28T00:31:49.731Z,2.40
2018-06-28T00:34:18.071Z,2.27
2018-06-28T00:36:46.452Z,2.13
2018-06-28T00:39:14.781Z,2.87
2018-06-28T00:41:43.143Z,2.97
2018-06-28T00:44:11.725Z,2.67
2018-06-28T00:46:40.243Z,6.20
2018-06-28T00:49:08.738Z,2.50
2018-06-28T00:51:37.102Z,3.03
2018-06-28T00:54:05.547Z,3.57
2018-06-28T00:56:33.933Z,3.27
2018-06-28T00:59:02.272Z,3.63
2018-06-28T01:01:30.626Z,3.53
2018-06-28T01:03:58.967Z,2.70
2018-06-28T01:06:27.336Z,2.90
2018-06-28T01:08:55.671Z,2.70
2018-06-28T01:11:24.082Z,3.00
2018-06-28T01:13:52.455Z,2.80
2018-06-28T01:16:20.807Z,2.80
2018-06-28T01:18:49.180Z,2.90
2018-06-28T01:21:17.551Z,3.87
2018-06-28T01:23:45.887Z,3.57
2018-06-28T01:26:14.249Z,3.23
2018-06-28T01:28:42.583Z,3.10
2018-06-28T01:31:10.911Z,3.37
2018-06-28T01:33:39.280Z,3.30
2018-06-28T01:36:07.619Z,3.17
2018-06-28T01:38:35.985Z,3.87
2018-06-28T01:41:04.407Z,3.70
2018-06-28T01:43:44.894Z,3.30
2018-06-28T01:46:13.363Z,3.53
2018-06-28T01:48:41.737Z,3.80
2018-06-28T01:51:10.088Z,5.23
2018-06-28T01:53:38.481Z,4.63
2018-06-28T01:56:06.836Z,3.40
2018-06-28T01:58:35.237Z,4.57
2018-06-28T02:01:03.628Z,4.50
2018-06-28T02:03:31.992Z,3.87
2018-06-28T02:06:00.335Z,4.60
2018-06-28T02:08:28.423Z,3.50
2018-06-28T02:10:56.765Z,4.07
2018-06-28T02:13:25.142Z,4.73
2018-06-28T02:15:53.501Z,3.47
2018-06-28T02:18:21.870Z,4.30
2018-06-28T02:20:50.196Z,3.87
2018-06-28T02:23:18.545Z,3.50
2018-06-28T02:25:46.879Z,3.90
2018-06-28T02:28:15.227Z,3.73
2018-06-28T02:30:43.553Z,3.57
2018-06-28T02:33:11.902Z,3.53
2018-06-28T02:35:39.966Z,3.33
2018-06-28T02:38:08.365Z,4.00
2018-06-28T02:40:36.700Z,3.70
2018-06-28T02:43:05.174Z,3.73
2018-06-28T02:45:33.507Z,4.10
2018-06-28T02:48:01.590Z,4.50
2018-06-28T02:50:29.908Z,3.73
2018-06-28T02:52:58.261Z,3.70
2018-06-28T02:55:26.595Z,5.83
2018-06-28T02:57:54.946Z,4.43
2018-06-28T03:00:23.303Z,4.20
2018-06-28T03:02:51.972Z,4.20
2018-06-28T03:05:20.302Z,3.80
2018-06-28T03:07:48.655Z,4.07
2018-06-28T03:10:17.008Z,3.90
2018-06-28T03:12:45.725Z,4.10
2018-06-28T03:15:14.081Z,3.97
2018-06-28T03:17:42.444Z,4.30
2018-06-28T03:20:10.768Z,4.70
2018-06-28T03:22:39.115Z,4.50
2018-06-28T03:25:07.451Z,4.80
2018-06-28T03:27:35.804Z,4.20
2018-06-28T03:30:04.308Z,4.30
2018-06-28T03:32:32.635Z,4.97
2018-06-28T03:35:00.995Z,4.80
2018-06-28T03:37:29.046Z,5.07
2018-06-28T03:39:57.408Z,4.33
2018-06-28T03:42:25.739Z,4.70
2018-06-28T03:44:54.100Z,3.73
2018-06-28T03:47:22.171Z,4.33
2018-06-28T03:49:50.271Z,6.40
2018-06-28T03:52:18.603Z,4.87
2018-06-28T03:54:47.033Z,4.57
2018-06-28T03:57:15.386Z,4.47
2018-06-28T03:59:43.747Z,5.97
2018-06-28T04:02:12.080Z,6.20
2018-06-28T04:04:40.435Z,7.47
2018-06-28T04:07:08.770Z,5.20
2018-06-28T04:09:37.141Z,5.67
2018-06-28T04:12:05.492Z,7.33
2018-06-28T04:14:33.903Z,8.93
2018-06-28T04:17:02.272Z,6.67
2018-06-28T04:19:30.672Z,6.83
2018-06-28T04:21:59.004Z,5.73
2018-06-28T04:24:27.385Z,5.13
2018-06-28T04:26:55.719Z,5.27
2018-06-28T04:29:24.112Z,5.37
2018-06-28T04:31:52.180Z,7.43
2018-06-28T04:34:20.268Z,5.30
2018-06-28T04:36:48.608Z,5.23
2018-06-28T04:39:16.980Z,5.80
2018-06-28T04:41:45.325Z,5.50
2018-06-28T04:44:13.706Z,5.60
2018-06-28T04:46:42.095Z,5.43
2018-06-28T04:49:10.455Z,5.80
2018-06-28T04:51:38.792Z,6.33
2018-06-28T04:54:07.169Z,6.07
2018-06-28T04:56:35.522Z,5.33
2018-06-28T04:59:03.972Z,5.50
2018-06-28T05:01:32.360Z,8.23
2018-06-28T05:04:00.734Z,5.73
2018-06-28T05:06:29.071Z,7.73
2018-06-28T05:08:57.449Z,5.80
2018-06-28T05:11:25.789Z,7.53
2018-06-28T05:13:54.219Z,6.07
2018-06-28T05:16:22.285Z,6.27
2018-06-28T05:18:50.676Z,8.37
2018-06-28T05:21:18.765Z,6.63
2018-06-28T05:23:47.117Z,6.10
2018-06-28T05:26:15.503Z,6.20
2018-06-28T05:28:43.572Z,6.10
2018-06-28T05:31:11.948Z,6.47
2018-06-28T05:33:40.329Z,6.63
2018-06-28T05:36:08.712Z,5.97
2018-06-28T05:38:37.068Z,5.93
2018-06-28T05:41:05.450Z,6.40
2018-06-28T05:43:34.196Z,6.10
2018-06-28T05:46:02.576Z,6.80
2018-06-28T05:48:30.916Z,6.40
2018-06-28T05:50:59.289Z,5.53
2018-06-28T05:53:27.657Z,6.87
2018-06-28T05:55:56.048Z,5.47
2018-06-28T05:58:24.397Z,6.10
2018-06-28T06:00:52.781Z,5.63
2018-06-28T06:03:21.147Z,5.37
2018-06-28T06:05:49.543Z,5.27
2018-06-28T06:08:17.891Z,6.00
2018-06-28T06:10:46.279Z,5.30
2018-06-28T06:13:14.617Z,5.27
2018-06-28T06:15:42.759Z,5.27
2018-06-28T06:18:11.135Z,7.23
2018-06-28T06:20:39.528Z,5.33
2018-06-28T06:23:07.893Z,5.37
2018-06-28T06:25:36.285Z,6.50
2018-06-28T06:28:06.676Z,5.07
2018-06-28T06:30:35.084Z,4.63
2018-06-28T06:33:03.485Z,4.43
2018-06-28T06:35:31.921Z,7.67
2018-06-28T06:38:00.297Z,6.03
2018-06-28T06:40:28.707Z,5.43
2018-06-28T06:42:57.060Z,5.77
2018-06-28T06:45:25.452Z,6.20
2018-06-28T06:47:53.832Z,7.87
2018-06-28T06:50:22.262Z,5.10
2018-06-28T06:52:50.339Z,6.20
2018-06-28T06:55:18.886Z,6.17
2018-06-28T06:57:47.088Z,4.97
2018-06-28T07:00:15.469Z,4.97
2018-06-28T07:02:43.556Z,5.13
2018-06-28T07:05:11.940Z,5.00
2018-06-28T07:07:40.276Z,5.17
2018-06-28T07:10:08.761Z,4.97
2018-06-28T07:12:36.788Z,6.50
2018-06-28T07:15:05.315Z,5.00
2018-06-28T07:17:33.701Z,4.90
2018-06-28T07:20:02.065Z,4.93
2018-06-28T07:22:30.457Z,4.40
2018-06-28T07:24:58.818Z,5.13
2018-06-28T07:27:27.192Z,4.67
2018-06-28T07:29:55.549Z,4.97
2018-06-28T07:32:23.916Z,6.23
2018-06-28T07:34:52.269Z,5.67
2018-06-28T07:37:20.376Z,4.60
2018-06-28T07:39:48.719Z,5.63
2018-06-28T07:42:16.835Z,4.07
2018-06-28T07:44:45.165Z,3.90
2018-06-28T07:47:13.543Z,4.20
2018-06-28T07:49:41.885Z,4.73
2018-06-28T07:52:10.253Z,3.80
2018-06-28T07:54:38.597Z,3.70
2018-06-28T07:57:06.998Z,4.00
2018-06-28T07:59:35.357Z,4.10
2018-06-28T08:02:03.465Z,3.60
2018-06-28T08:04:31.877Z,5.70
2018-06-28T08:07:00.241Z,3.90
2018-06-28T08:09:28.598Z,3.43
2018-06-28T08:11:56.975Z,3.33
2018-06-28T08:14:25.364Z,3.33
2018-06-28T08:16:53.769Z,4.77
2018-06-28T08:19:22.161Z,4.77
2018-06-28T08:21:50.544Z,3.70
2018-06-28T08:24:18.884Z,3.20
2018-06-28T08:26:47.248Z,2.90
2018-06-28T08:29:15.571Z,2.97
2018-06-28T08:31:43.945Z,2.83
2018-06-28T08:34:12.274Z,3.60
2018-06-28T08:36:40.633Z,2.80
2018-06-28T08:39:09.543Z,2.90
2018-06-28T08:41:37.960Z,3.33
2018-06-28T08:44:06.451Z,3.10
2018-06-28T08:46:35.403Z,2.93
2018-06-28T08:49:03.834Z,2.93
2018-06-28T08:51:32.212Z,3.00
2018-06-28T08:54:00.816Z,2.77
2018-06-28T08:56:29.168Z,2.93
2018-06-28T08:58:57.504Z,2.67
2018-06-28T09:01:25.957Z,2.30
2018-06-28T09:03:54.293Z,3.10
2018-06-28T09:06:22.631Z,2.20
2018-06-28T09:08:50.708Z,2.43
2018-06-28T09:11:19.099Z,2.30
2018-06-28T09:13:47.624Z,5.23
2018-06-28T09:16:16.004Z,2.40
2018-06-28T09:18:44.513Z,3.27
2018-06-28T09:21:12.887Z,3.20
2018-06-28T09:23:41.342Z,2.00
2018-06-28T09:26:09.775Z,4.17
2018-06-28T09:28:37.859Z,3.07
2018-06-28T09:31:07.064Z,1.80
2018-06-28T09:33:35.548Z,2.10
2018-06-28T09:36:04.019Z,2.33
2018-06-28T09:38:32.427Z,2.20
2018-06-28T09:41:00.855Z,2.13
2018-06-28T09:43:29.276Z,2.97
2018-06-28T09:45:57.631Z,2.37
2018-06-28T09:48:26.017Z,2.60
2018-06-28T09:50:54.367Z,2.53
2018-06-28T09:53:22.742Z,2.67
2018-06-28T09:55:51.132Z,2.23
2018-06-28T09:58:19.500Z,2.37
2018-06-28T10:00:47.844Z,3.40
2018-06-28T10:03:16.223Z,2.30
2018-06-28T10:05:44.560Z,2.97
2018-06-28T10:08:12.924Z,3.00
2018-06-28T10:10:41.410Z,3.13
2018-06-28T10:13:09.849Z,2.40
2018-06-28T10:15:38.277Z,2.10
2018-06-28T10:18:06.655Z,2.30
2018-06-28T10:20:34.998Z,2.40
2018-06-28T10:23:03.366Z,2.80
2018-06-28T10:25:31.699Z,4.20
2018-06-28T10:27:59.797Z,4.97
2018-06-28T10:30:28.123Z,2.60
2018-06-28T10:32:56.522Z,2.27
2018-06-28T10:35:24.592Z,2.27
2018-06-28T10:37:52.944Z,2.52
2018-06-28T10:40:21.296Z,2.80
2018-06-28T10:42:50.483Z,2.10
2018-06-28T10:45:18.819Z,2.20
2018-06-28T10:47:47.179Z,2.20
2018-06-28T10:50:15.524Z,3.40
2018-06-28T10:52:43.884Z,2.22
2018-06-28T10:55:12.252Z,2.45
2018-06-28T10:57:40.338Z,2.30
2018-06-28T11:00:08.690Z,2.02
2018-06-28T11:02:37.049Z,2.62
2018-06-28T11:05:05.792Z,2.00
2018-06-28T11:07:34.153Z,1.90
2018-06-28T11:10:02.493Z,2.10
2018-06-28T11:12:30.846Z,2.42
2018-06-28T11:14:59.216Z,2.30
2018-06-28T11:17:27.556Z,3.27
2018-06-28T11:19:55.965Z,2.10
2018-06-28T11:22:24.318Z,2.75
2018-06-28T11:24:52.412Z,2.40
2018-06-28T11:27:20.922Z,2.25
2018-06-28T11:29:49.295Z,2.20
2018-06-28T11:32:17.635Z,2.77
2018-06-28T11:34:45.729Z,2.10
2018-06-28T11:37:14.066Z,2.10
2018-06-28T11:39:42.431Z,2.55
2018-06-28T11:42:10.788Z,2.12
2018-06-28T11:44:39.136Z,2.00
2018-06-28T11:47:07.459Z,2.00
2018-06-28T11:49:35.824Z,2.30
2018-06-28T11:52:04.186Z,4.22
2018-06-28T11:54:32.540Z,2.10
2018-06-28T11:57:00.603Z,2.30
2018-06-28T11:59:28.969Z,1.90
2018-06-28T12:01:57.308Z,3.83
2018-06-28T12:04:25.680Z,3.08
2018-06-28T12:06:54.012Z,1.92
2018-06-28T12:09:22.369Z,3.55
2018-06-28T12:11:50.733Z,2.52
2018-06-28T12:14:19.129Z,2.42
2018-06-28T12:16:47.519Z,3.00
2018-06-28T12:19:15.962Z,2.08
2018-06-28T12:21:44.307Z,2.15
2018-06-28T12:24:12.680Z,4.17
2018-06-28T12:26:41.029Z,2.25
2018-06-28T12:29:09.431Z,1.98
2018-06-28T12:31:37.795Z,1.85
2018-06-28T12:34:06.187Z,2.72
2018-06-28T12:36:34.540Z,1.90
2018-06-28T12:39:02.959Z,1.90
2018-06-28T12:41:31.304Z,2.08
2018-06-28T12:43:59.674Z,1.98
2018-06-28T12:47:46.132Z,2.17
2018-06-28T12:50:14.244Z,2.58
2018-06-28T12:52:46.402Z,1.87
2018-06-28T12:55:16.108Z,1.95
2018-06-28T12:57:44.760Z,1.98
2018-06-28T13:00:13.913Z,2.20
2018-06-28T13:02:42.435Z,2.00
2018-06-28T13:05:11.880Z,2.15
2018-06-28T13:07:40.238Z,1.90
2018-06-28T13:10:09.228Z,2.00
2018-06-28T13:12:38.134Z,2.58
2018-06-28T13:15:07.352Z,2.20
2018-06-28T13:17:35.725Z,2.10
2018-06-28T13:20:04.762Z,2.10
2018-06-28T13:22:33.105Z,2.50
2018-06-28T13:25:01.468Z,2.60
2018-06-28T13:27:29.800Z,2.65
2018-06-28T13:29:58.211Z,3.37
2018-06-28T13:32:26.295Z,2.30
2018-06-28T13:34:54.375Z,2.02
2018-06-28T13:37:22.733Z,2.12
2018-06-28T13:39:51.091Z,2.40
2018-06-28T13:42:19.610Z,3.02
2018-06-28T13:44:47.843Z,2.10
2018-06-28T13:47:16.189Z,2.45
2018-06-28T13:49:44.541Z,1.80
2018-06-28T13:52:12.632Z,2.12
2018-06-28T13:54:40.971Z,1.98
2018-06-28T13:57:09.329Z,2.37
2018-06-28T13:59:37.667Z,2.10
2018-06-28T14:02:06.195Z,2.98
2018-06-28T14:04:34.532Z,2.87
2018-06-28T14:07:02.916Z,2.37
2018-06-28T14:09:31.253Z,2.00
2018-06-28T14:11:59.613Z,1.87
2018-06-28T14:14:27.980Z,2.02
2018-06-28T14:16:56.361Z,2.58
2018-06-28T14:19:24.708Z,2.55
2018-06-28T14:21:53.073Z,4.37
2018-06-28T14:24:21.400Z,2.85
2018-06-28T14:26:49.754Z,2.10
2018-06-28T14:29:18.085Z,2.55
2018-06-28T14:31:46.464Z,2.27
2018-06-28T14:34:14.787Z,1.95
2018-06-28T14:36:43.147Z,2.02
2018-06-28T14:39:11.481Z,2.83
2018-06-28T14:41:39.907Z,1.82
2018-06-28T14:44:08.215Z,2.17
2018-06-28T14:46:36.578Z,2.58
2018-06-28T14:49:04.986Z,1.77
2018-06-28T14:51:33.336Z,2.00
2018-06-28T14:54:01.661Z,2.20
2018-06-28T14:56:30.023Z,1.92
2018-06-28T14:58:58.350Z,1.82
2018-06-28T15:01:26.423Z,2.52
2018-06-28T15:03:54.494Z,2.10
2018-06-28T15:06:22.589Z,2.92
2018-06-28T15:08:50.925Z,2.10
2018-06-28T15:11:19.274Z,2.00
2018-06-28T15:13:47.897Z,2.80
2018-06-28T15:16:16.317Z,2.08
2018-06-28T15:18:44.744Z,2.37
2018-06-28T15:21:13.162Z,1.98
2018-06-28T15:23:41.473Z,2.58
2018-06-28T15:26:09.831Z,3.80
2018-06-28T15:28:38.173Z,2.95
2018-06-28T15:31:06.604Z,2.00
2018-06-28T15:33:34.909Z,2.12
2018-06-28T15:36:03.287Z,1.90
2018-06-28T15:38:31.635Z,5.67
2018-06-28T15:40:59.968Z,2.05
2018-06-28T15:43:28.346Z,1.70
2018-06-28T15:45:56.691Z,1.70
2018-06-28T15:48:25.059Z,1.77
2018-06-28T15:50:53.395Z,3.25
2018-06-28T15:53:21.478Z,2.17
2018-06-28T15:55:49.816Z,6.90
2018-06-28T15:58:18.191Z,1.82
2018-06-28T16:00:46.528Z,1.80
2018-06-28T16:03:14.904Z,1.90
2018-06-28T16:05:43.260Z,1.80
2018-06-28T16:08:11.364Z,2.20
2018-06-28T16:10:39.727Z,2.02
2018-06-28T16:13:07.815Z,1.95
2018-06-28T16:15:36.248Z,2.20
2018-06-28T16:18:04.652Z,2.00
2018-06-28T16:20:32.706Z,2.05
2018-06-28T16:23:01.183Z,2.15
2018-06-28T16:25:29.524Z,1.98
2018-06-28T16:27:57.909Z,2.33
2018-06-28T16:30:26.236Z,4.05
2018-06-28T16:32:54.612Z,2.22
2018-06-28T16:35:22.690Z,2.60
2018-06-28T16:37:50.782Z,2.27
2018-06-28T16:40:19.112Z,2.10
2018-06-28T16:42:47.508Z,2.27
2018-06-28T16:45:15.832Z,3.22
2018-06-28T16:47:44.604Z,2.72
2018-06-28T16:50:12.936Z,2.20
2018-06-28T16:52:41.296Z,2.30
2018-06-28T16:55:09.620Z,1.90
2018-06-28T16:57:38.000Z,3.55
2018-06-28T17:00:06.467Z,2.87
2018-06-28T17:02:34.861Z,2.40
2018-06-28T17:05:03.248Z,2.00
2018-06-28T17:07:31.630Z,6.42
2018-06-28T17:09:59.698Z,2.70
2018-06-28T17:12:27.779Z,1.90
2018-06-28T17:14:56.161Z,5.40
2018-06-28T17:17:24.556Z,2.20
2018-06-28T17:19:52.910Z,2.50
2018-06-28T17:22:21.008Z,2.20
2018-06-28T17:24:49.365Z,2.25
2018-06-28T17:27:17.730Z,2.20
2018-06-28T17:29:46.052Z,2.75
2018-06-28T17:32:14.421Z,2.98
2018-06-28T17:34:42.781Z,2.45
2018-06-28T17:37:10.846Z,2.52
2018-06-28T17:39:39.236Z,1.95
2018-06-28T17:42:07.315Z,2.30
2018-06-28T17:44:35.402Z,2.17
2018-06-28T17:47:03.784Z,2.10
2018-06-28T17:49:32.164Z,3.05
2018-06-28T17:52:00.519Z,2.20
2018-06-28T17:54:28.636Z,3.80
2018-06-28T17:56:57.004Z,2.00
2018-06-28T17:59:25.390Z,2.30
2018-06-28T18:01:54.011Z,2.12
2018-06-28T18:04:22.401Z,2.10
2018-06-28T18:06:50.756Z,4.35
2018-06-28T18:09:19.118Z,2.22
2018-06-28T18:11:47.459Z,2.20
2018-06-28T18:14:15.882Z,2.42
2018-06-28T18:16:44.229Z,2.87
2018-06-28T18:19:12.588Z,2.37
2018-06-28T18:21:40.656Z,2.70
2018-06-28T18:24:09.011Z,2.95
2018-06-28T18:26:37.356Z,3.45
2018-06-28T18:29:05.734Z,3.83
2018-06-28T18:31:34.068Z,4.65
2018-06-28T18:34:02.460Z,2.80
2018-06-28T18:36:30.755Z,3.12
2018-06-28T18:38:59.147Z,2.95
2018-06-28T18:41:27.565Z,2.75
2018-06-28T18:43:55.924Z,2.10
2018-06-28T18:46:24.252Z,2.33
2018-06-28T18:48:52.430Z,3.00
2018-06-28T18:51:20.507Z,2.47
2018-06-28T18:53:48.881Z,2.40
2018-06-28T18:56:17.215Z,4.08
2018-06-28T18:58:45.637Z,2.37
2018-06-28T19:01:13.716Z,2.42
2018-06-28T19:03:42.466Z,4.60
2018-06-28T19:06:10.884Z,2.10
2018-06-28T19:08:39.027Z,2.15
2018-06-28T19:11:07.341Z,2.55
2018-06-28T19:13:39.938Z,2.42
2018-06-28T19:16:13.958Z,2.52
2018-06-28T19:18:42.459Z,4.05
2018-06-28T19:21:16.150Z,2.50
2018-06-28T19:23:49.152Z,2.10
2018-06-28T19:26:17.981Z,3.75
2018-06-28T19:28:46.908Z,2.87
2018-06-28T19:31:20.583Z,2.58
2018-06-28T19:33:48.835Z,2.87
2018-06-28T19:36:17.339Z,2.40
2018-06-28T19:38:51.210Z,5.00
2018-06-28T19:41:24.923Z,3.58
2018-06-28T19:43:53.519Z,2.37
2018-06-28T19:46:21.908Z,3.62
2018-06-28T19:48:50.244Z,2.45
2018-06-28T19:51:26.002Z,3.47
2018-06-28T19:53:54.450Z,3.15
2018-06-28T19:56:22.827Z,2.90
2018-06-28T19:58:51.175Z,2.65
2018-06-28T20:01:25.047Z,2.50
2018-06-28T20:04:00.079Z,2.77
2018-06-28T20:06:31.745Z,3.00
2018-06-28T20:09:00.283Z,2.30
2018-06-28T20:11:29.017Z,2.75
2018-06-28T20:14:02.746Z,2.70
2018-06-28T20:16:36.473Z,5.75
2018-06-28T20:19:10.174Z,3.75
2018-06-28T20:21:38.299Z,2.75
2018-06-28T20:24:06.713Z,2.60
2018-06-28T20:26:40.465Z,3.60
2018-06-28T20:29:14.211Z,2.50
2018-06-28T20:31:47.951Z,3.45
2018-06-28T20:34:16.063Z,2.60
2018-06-28T20:36:44.447Z,2.70
2018-06-28T20:39:12.823Z,3.72
2018-06-28T20:41:41.245Z,2.83
2018-06-28T20:44:11.616Z,9.20
2018-06-28T20:46:39.996Z,3.30
2018-06-28T20:49:08.458Z,3.80
2018-06-28T20:51:36.870Z,3.55
2018-06-28T20:54:05.269Z,4.27
2018-06-28T20:56:33.701Z,2.40
2018-06-28T20:59:01.828Z,2.70
2018-06-28T21:01:30.209Z,2.60
2018-06-28T21:03:58.556Z,3.17
2018-06-28T21:06:26.931Z,3.53
2018-06-28T21:08:55.292Z,2.93
2018-06-28T21:11:23.374Z,2.67
2018-06-28T21:13:51.708Z,2.30
2018-06-28T21:16:20.099Z,2.90
2018-06-28T21:18:48.432Z,2.47
2018-06-28T21:21:16.879Z,2.60
2018-06-28T21:23:44.940Z,2.40
2018-06-28T21:26:13.308Z,2.53
2018-06-28T21:28:41.651Z,3.23
2018-06-28T21:31:10.023Z,2.60
2018-06-28T21:33:38.365Z,3.93
2018-06-28T21:36:06.471Z,3.67
2018-06-28T21:38:34.808Z,3.53
2018-06-28T21:41:03.527Z,5.60
2018-06-28T21:43:31.887Z,2.57
2018-06-28T21:45:59.987Z,4.60
2018-06-28T21:48:28.408Z,2.30
2018-06-28T21:50:56.807Z,3.00
2018-06-28T21:53:25.158Z,3.93
2018-06-28T21:55:53.541Z,2.90
2018-06-28T21:58:21.899Z,2.90
2018-06-28T22:00:50.274Z,3.00
2018-06-28T22:03:18.632Z,2.40
2018-06-28T22:05:46.991Z,2.50
2018-06-28T22:08:15.330Z,2.20
2018-06-28T22:10:43.741Z,2.40
2018-06-28T22:13:12.112Z,2.40
2018-06-28T22:15:40.491Z,2.50
2018-06-28T22:18:08.872Z,3.07
2018-06-28T22:20:37.219Z,3.37
2018-06-28T22:23:05.603Z,3.50
2018-06-28T22:25:34.039Z,5.57
2018-06-28T22:28:02.127Z,2.30
2018-06-28T22:30:30.480Z,2.40
2018-06-28T22:32:58.578Z,2.33
2018-06-28T22:35:26.923Z,2.73
2018-06-28T22:37:55.340Z,2.17
2018-06-28T22:40:23.683Z,2.67
2018-06-28T22:42:52.078Z,2.50
2018-06-28T22:45:20.452Z,2.53
2018-06-28T22:47:48.551Z,3.80
2018-06-28T22:50:16.949Z,3.20
2018-06-28T22:52:45.300Z,2.87
2018-06-28T22:55:13.648Z,3.23
2018-06-28T22:57:42.030Z,2.60
2018-06-28T23:00:10.432Z,4.13
2018-06-28T23:02:38.903Z,2.50
2018-06-28T23:05:07.238Z,3.60
2018-06-28T23:07:35.603Z,2.90
2018-06-28T23:10:04.005Z,3.07
2018-06-28T23:12:32.363Z,2.40
2018-06-28T23:15:00.723Z,2.90
2018-06-28T23:17:29.099Z,2.60
2018-06-28T23:19:57.433Z,3.63
2018-06-28T23:22:44.009Z,4.23
2018-06-28T23:25:13.158Z,2.43
2018-06-28T23:27:42.076Z,3.87
2018-06-28T23:30:10.112Z,2.40
2018-06-28T23:32:38.467Z,2.90
2018-06-28T23:35:07.291Z,2.80
2018-06-28T23:37:35.639Z,3.70
2018-06-28T23:40:04.356Z,4.37
2018-06-28T23:42:32.852Z,2.60
2018-06-28T23:45:00.911Z,3.03
2018-06-28T23:47:29.291Z,4.40
2018-06-28T23:49:57.622Z,4.03
2018-06-28T23:52:26.003Z,3.80
2018-06-28T23:54:54.339Z,3.17
2018-06-28T23:57:22.431Z,3.40
2018-06-28T23:59:50.864Z,5.93
